sim
Sign-in with your pilot id or email,
or register
Callsign
Passwort

Schedule Details

Flight Number: OEO7284
Departure: Leipzig Halle Airport (EDDP) at 10:30
Arrival: Fuerteventura Airport (GCFV) at 15:55

Weather Information
Getting current METAR information for EDDP 222220Z 36002KT CAVOK 21/14 Q1022 NOSIG
Getting current METAR information for GCFV 222200Z 35016KT CAVOK 22/17 Q1018

Schedule Frequency

Route Map